createdAt,value
2023-03-24T00:00:24.758Z,10.40
2023-03-24T00:02:52.675Z,10.37
2023-03-24T00:05:22.414Z,10.39
2023-03-24T00:07:54.808Z,10.35
2023-03-24T00:10:23.141Z,10.35
2023-03-24T00:12:51.130Z,10.37
2023-03-24T00:15:21.362Z,10.33
2023-03-24T00:17:52.523Z,10.33
2023-03-24T00:20:22.463Z,10.35
2023-03-24T00:22:51.424Z,10.37
2023-03-24T00:25:20.659Z,10.33
2023-03-24T00:27:49.198Z,10.33
2023-03-24T00:30:18.328Z,10.31
2023-03-24T00:32:46.520Z,10.33
2023-03-24T00:35:14.972Z,10.34
2023-03-24T00:37:43.090Z,10.35
2023-03-24T00:40:13.055Z,10.35
2023-03-24T00:42:45.937Z,10.29
2023-03-24T00:45:18.443Z,10.27
2023-03-24T00:47:45.792Z,10.26
2023-03-24T00:50:17.408Z,10.23
2023-03-24T00:52:48.402Z,10.27
2023-03-24T00:55:16.746Z,10.28
2023-03-24T00:57:52.966Z,10.32
2023-03-24T01:00:24.783Z,10.27
2023-03-24T01:02:55.798Z,10.26
2023-03-24T01:05:24.989Z,10.28
2023-03-24T01:07:52.533Z,10.29
2023-03-24T01:10:21.893Z,10.28
2023-03-24T01:12:49.122Z,10.28
2023-03-24T01:15:19.122Z,10.31
2023-03-24T01:17:48.897Z,10.30
2023-03-24T01:20:16.793Z,10.27
2023-03-24T01:22:46.433Z,10.31
2023-03-24T01:25:18.740Z,10.35
2023-03-24T01:27:49.476Z,10.35
2023-03-24T01:30:18.495Z,10.34
2023-03-24T01:32:45.572Z,10.36
2023-03-24T01:35:13.324Z,10.30
2023-03-24T01:37:40.532Z,10.30
2023-03-24T01:40:10.181Z,10.32
2023-03-24T01:42:39.281Z,10.29
2023-03-24T01:45:34.305Z,10.29
2023-03-24T01:48:01.440Z,10.33
2023-03-24T01:50:30.151Z,10.34
2023-03-24T01:52:57.323Z,10.38
2023-03-24T01:55:24.553Z,10.34
2023-03-24T01:57:56.276Z,10.37
2023-03-24T02:00:28.213Z,10.40
2023-03-24T02:03:26.049Z,10.38
2023-03-24T02:06:02.554Z,10.37
2023-03-24T02:08:53.482Z,10.39
2023-03-24T02:11:22.480Z,10.37
2023-03-24T02:13:53.666Z,10.33
2023-03-24T02:16:41.224Z,10.34
2023-03-24T02:19:27.319Z,10.27
2023-03-24T02:22:21.594Z,10.26
2023-03-24T02:25:06.219Z,10.26
2023-03-24T02:28:10.001Z,10.24
2023-03-24T02:30:42.974Z,10.30
2023-03-24T02:33:26.396Z,10.34
2023-03-24T02:36:08.350Z,10.37
2023-03-24T02:39:10.056Z,10.30
2023-03-24T02:41:56.170Z,10.32
2023-03-24T02:44:29.644Z,10.33
2023-03-24T02:47:37.873Z,10.36
2023-03-24T02:50:23.785Z,10.33
2023-03-24T02:53:00.326Z,10.33
2023-03-24T02:55:34.428Z,10.35
2023-03-24T02:58:04.525Z,10.35
2023-03-24T03:00:52.705Z,10.37
2023-03-24T03:03:43.404Z,10.44
2023-03-24T03:06:17.881Z,10.43
2023-03-24T03:08:47.863Z,10.45
2023-03-24T03:11:16.382Z,10.47
2023-03-24T03:13:56.786Z,10.44
2023-03-24T03:16:34.697Z,10.46
2023-03-24T03:19:03.873Z,10.45
2023-03-24T03:21:35.613Z,10.48
2023-03-24T03:24:07.183Z,10.47
2023-03-24T03:26:34.689Z,10.47
2023-03-24T03:29:05.724Z,10.50
2023-03-24T03:31:42.104Z,10.50
2023-03-24T03:34:19.357Z,10.51
2023-03-24T03:37:05.046Z,10.50
2023-03-24T03:39:35.111Z,10.50
2023-03-24T03:42:06.671Z,10.51
2023-03-24T03:44:33.931Z,10.51
2023-03-24T03:47:00.861Z,10.50
2023-03-24T03:49:37.914Z,10.50
2023-03-24T03:52:05.636Z,10.50
2023-03-24T03:54:34.421Z,10.50
2023-03-24T03:57:01.846Z,10.53
2023-03-24T03:59:37.678Z,10.53
2023-03-24T04:02:28.165Z,10.48
2023-03-24T04:05:26.677Z,10.54
2023-03-24T04:08:26.374Z,10.51
2023-03-24T04:11:26.281Z,10.47
2023-03-24T04:14:48.696Z,10.48
2023-03-24T04:18:10.608Z,10.42
2023-03-24T04:21:06.977Z,10.43
2023-03-24T04:23:50.055Z,10.44
2023-03-24T04:26:29.249Z,10.45
2023-03-24T04:29:18.244Z,10.43
2023-03-24T04:31:54.130Z,10.46
2023-03-24T04:34:51.083Z,10.44
2023-03-24T04:37:38.948Z,10.45
2023-03-24T04:40:17.584Z,10.42
2023-03-24T04:42:47.875Z,10.40
2023-03-24T04:45:15.322Z,10.45
2023-03-24T04:48:04.354Z,10.51
2023-03-24T04:50:40.276Z,10.53
2023-03-24T04:53:12.964Z,10.51
2023-03-24T04:55:50.361Z,10.54
2023-03-24T04:58:40.711Z,10.50
2023-03-24T05:01:09.267Z,10.56
2023-03-24T05:03:38.285Z,10.73
2023-03-24T05:06:08.719Z,10.81
2023-03-24T05:08:35.575Z,10.88
2023-03-24T05:11:02.408Z,10.92
2023-03-24T05:13:31.938Z,10.95
2023-03-24T05:16:01.765Z,11.02
2023-03-24T05:18:34.617Z,10.97
2023-03-24T05:21:02.274Z,10.96
2023-03-24T05:23:29.135Z,10.97
2023-03-24T05:25:57.040Z,11.04
2023-03-24T05:28:29.514Z,11.07
2023-03-24T05:30:59.561Z,10.96
2023-03-24T05:33:48.934Z,10.92
2023-03-24T05:36:18.817Z,10.92
2023-03-24T05:38:53.882Z,11.01
2023-03-24T05:41:21.619Z,11.06
2023-03-24T05:43:48.501Z,11.01
2023-03-24T05:46:16.773Z,10.95
2023-03-24T05:48:45.139Z,10.95
2023-03-24T05:51:16.650Z,10.90
2023-03-24T05:53:44.528Z,10.94
2023-03-24T05:56:17.836Z,10.97
2023-03-24T05:59:03.843Z,11.09
2023-03-24T06:01:59.802Z,11.03
2023-03-24T06:04:36.910Z,11.02
2023-03-24T06:07:11.778Z,11.04
2023-03-24T06:09:43.705Z,11.08
2023-03-24T06:12:13.911Z,11.09
2023-03-24T06:14:49.329Z,11.08
2023-03-24T06:17:18.732Z,11.11
2023-03-24T06:19:50.682Z,11.15
2023-03-24T06:23:26.338Z,11.18
2023-03-24T06:26:23.082Z,11.13
2023-03-24T06:32:15.604Z,11.25
2023-03-24T06:34:46.790Z,11.31
2023-03-24T06:38:00.409Z,11.33
2023-03-24T06:40:31.393Z,11.38
2023-03-24T06:42:59.061Z,11.37
2023-03-24T06:45:26.552Z,11.35
2023-03-24T06:47:56.414Z,11.38
2023-03-24T06:50:27.041Z,11.33
2023-03-24T06:52:55.239Z,11.39
2023-03-24T06:55:37.601Z,11.38
2023-03-24T06:58:07.290Z,11.39
2023-03-24T07:01:00.347Z,11.39
2023-03-24T07:04:02.177Z,11.44
2023-03-24T07:07:02.102Z,11.45
2023-03-24T07:09:36.488Z,11.56
2023-03-24T07:12:14.896Z,11.60
2023-03-24T07:14:47.102Z,11.63
2023-03-24T07:17:14.137Z,11.63
2023-03-24T07:19:59.333Z,11.68
2023-03-24T07:22:41.202Z,11.72
2023-03-24T07:25:26.090Z,11.74
2023-03-24T07:28:00.413Z,11.80
2023-03-24T07:30:37.319Z,11.89
2023-03-24T07:33:07.891Z,11.94
2023-03-24T07:35:35.447Z,12.04
2023-03-24T07:38:03.024Z,12.09
2023-03-24T07:40:30.939Z,12.18
2023-03-24T07:43:02.001Z,12.29
2023-03-24T07:45:46.010Z,12.37
2023-03-24T07:48:16.164Z,12.47
2023-03-24T07:50:43.258Z,12.48
2023-03-24T07:53:30.932Z,12.45
2023-03-24T07:55:58.298Z,12.42
2023-03-24T07:58:28.181Z,12.37
2023-03-24T08:01:17.465Z,12.38
2023-03-24T08:04:00.691Z,12.29
2023-03-24T08:07:53.094Z,12.26
2023-03-24T08:10:40.682Z,12.16
2023-03-24T08:21:02.382Z,12.13
2023-03-24T08:31:39.150Z,12.00
2023-03-24T08:34:11.837Z,12.01
2023-03-24T08:36:38.654Z,12.00
2023-03-24T08:39:09.985Z,12.05
2023-03-24T08:41:37.012Z,11.99
2023-03-24T08:44:07.039Z,12.04
2023-03-24T08:46:36.146Z,12.04
2023-03-24T08:49:04.386Z,12.06
2023-03-24T08:51:32.379Z,12.09
2023-03-24T08:54:15.403Z,12.07
2023-03-24T08:56:56.194Z,12.12
2023-03-24T08:59:47.757Z,12.17
2023-03-24T09:02:22.601Z,12.18
2023-03-24T09:04:54.889Z,12.23
2023-03-24T09:07:34.287Z,12.27
2023-03-24T09:10:07.684Z,12.30
2023-03-24T09:12:45.360Z,12.34
2023-03-24T09:15:13.614Z,12.30
2023-03-24T09:17:41.732Z,12.34
2023-03-24T09:20:18.892Z,12.35
2023-03-24T09:23:10.594Z,12.40
2023-03-24T09:25:58.232Z,12.44
2023-03-24T09:28:30.036Z,12.42
2023-03-24T09:31:02.172Z,12.52
2023-03-24T09:33:30.490Z,12.58
2023-03-24T09:36:00.153Z,12.64
2023-03-24T09:38:28.405Z,12.61
2023-03-24T09:40:58.086Z,12.65
2023-03-24T09:43:44.474Z,12.75
2023-03-24T09:46:28.728Z,12.77
2023-03-24T09:49:02.286Z,12.85
2023-03-24T09:51:49.405Z,12.97
2023-03-24T09:54:27.498Z,13.06
2023-03-24T09:56:55.676Z,13.10
2023-03-24T09:59:29.517Z,13.18
2023-03-24T10:01:56.807Z,13.16
2023-03-24T10:04:26.561Z,13.21
2023-03-24T10:07:01.842Z,13.26
2023-03-24T10:09:30.680Z,13.32
2023-03-24T10:12:08.041Z,13.31
2023-03-24T10:14:47.444Z,13.43
2023-03-24T10:17:33.486Z,13.44
2023-03-24T10:20:36.368Z,13.46
2023-03-24T10:23:11.320Z,13.54
2023-03-24T10:26:03.084Z,13.61
2023-03-24T10:28:45.394Z,13.81
2023-03-24T10:31:15.708Z,13.86
2023-03-24T10:33:48.400Z,13.83
2023-03-24T10:36:20.798Z,13.78
2023-03-24T10:38:48.294Z,13.85
2023-03-24T10:41:21.330Z,13.88
2023-03-24T10:43:49.715Z,13.95
2023-03-24T10:46:20.667Z,14.01
2023-03-24T10:48:50.255Z,14.14
2023-03-24T10:51:29.174Z,14.29
2023-03-24T10:54:20.025Z,14.28
2023-03-24T10:57:07.251Z,14.24
2023-03-24T10:59:37.946Z,14.18
2023-03-24T11:02:11.361Z,14.07
2023-03-24T11:04:39.674Z,14.10
2023-03-24T11:07:15.273Z,14.11
2023-03-24T11:09:46.391Z,14.12
2023-03-24T11:12:27.119Z,14.17
2023-03-24T11:15:14.171Z,14.11
2023-03-24T11:17:58.651Z,14.02
2023-03-24T11:20:30.054Z,14.01
2023-03-24T11:23:20.254Z,13.98
2023-03-24T11:29:41.608Z,14.09
2023-03-24T11:32:14.090Z,14.35
2023-03-24T11:34:47.577Z,14.42
2023-03-24T11:37:23.584Z,14.51
2023-03-24T11:40:17.719Z,14.57
2023-03-24T11:42:46.533Z,14.57
2023-03-24T11:45:28.203Z,14.62
2023-03-24T11:47:59.301Z,14.56
2023-03-24T11:50:29.415Z,14.62
2023-03-24T11:53:19.020Z,14.64
2023-03-24T11:55:58.313Z,14.56
2023-03-24T11:58:46.613Z,14.61
2023-03-24T12:01:26.514Z,14.63
2023-03-24T12:04:05.552Z,14.68
2023-03-24T12:07:10.151Z,14.59
2023-03-24T12:09:45.790Z,14.61
2023-03-24T12:12:33.632Z,14.79
2023-03-24T12:15:26.613Z,14.89
2023-03-24T12:18:18.275Z,14.79
2023-03-24T12:21:19.255Z,14.65
2023-03-24T12:24:14.621Z,14.72
2023-03-24T12:26:42.732Z,14.73
2023-03-24T12:29:47.802Z,14.63
2023-03-24T12:32:39.473Z,14.50
2023-03-24T12:35:25.012Z,14.47
2023-03-24T12:38:10.610Z,14.45
2023-03-24T12:41:04.655Z,14.39
2023-03-24T12:44:17.502Z,14.34
2023-03-24T12:47:08.508Z,14.30
2023-03-24T12:49:56.508Z,14.26
2023-03-24T12:52:42.301Z,14.29
2023-03-24T12:55:21.291Z,14.28
2023-03-24T12:57:53.132Z,14.21
2023-03-24T13:00:28.189Z,14.22
2023-03-24T13:03:01.559Z,14.23
2023-03-24T13:05:33.575Z,14.12
2023-03-24T13:08:04.240Z,14.14
2023-03-24T13:10:40.809Z,14.08
2023-03-24T13:13:16.630Z,14.04
2023-03-24T13:15:50.188Z,13.97
2023-03-24T13:18:22.156Z,13.93
2023-03-24T13:20:56.274Z,13.91
2023-03-24T13:23:35.593Z,13.89
2023-03-24T13:26:14.287Z,13.85
2023-03-24T13:28:59.362Z,13.78
2023-03-24T13:31:27.778Z,13.67
2023-03-24T13:33:54.937Z,13.66
2023-03-24T13:36:39.392Z,13.64
2023-03-24T13:39:10.250Z,13.61
2023-03-24T13:41:44.369Z,13.63
2023-03-24T13:44:20.460Z,13.61
2023-03-24T13:47:10.616Z,13.53
2023-03-24T13:49:38.877Z,13.55
2023-03-24T13:52:07.701Z,13.61
2023-03-24T13:54:37.244Z,13.61
2023-03-24T13:57:11.852Z,13.60
2023-03-24T14:00:11.756Z,13.55
2023-03-24T14:02:49.697Z,13.50
2023-03-24T14:05:23.103Z,13.50
2023-03-24T14:07:51.678Z,13.46
2023-03-24T14:10:24.442Z,13.42
2023-03-24T14:13:00.748Z,13.38
2023-03-24T14:15:47.782Z,13.33
2023-03-24T14:18:24.267Z,13.32
2023-03-24T14:21:09.805Z,13.30
2023-03-24T14:23:39.349Z,13.29
2023-03-24T14:26:14.511Z,13.32
2023-03-24T14:28:43.084Z,13.30
2023-03-24T14:31:15.909Z,13.32
2023-03-24T14:34:11.129Z,13.30
2023-03-24T14:36:41.413Z,13.27
2023-03-24T14:39:33.575Z,13.30
2023-03-24T14:42:00.522Z,13.33
2023-03-24T14:44:46.841Z,13.46
2023-03-24T14:47:20.603Z,13.59
2023-03-24T14:49:48.679Z,13.66
2023-03-24T14:52:18.936Z,13.76
2023-03-24T14:54:53.795Z,13.78
2023-03-24T14:57:28.978Z,13.78
2023-03-24T15:00:22.758Z,13.74
2023-03-24T15:02:54.554Z,13.85
2023-03-24T15:05:28.642Z,14.09
2023-03-24T15:08:19.098Z,14.17
2023-03-24T15:10:50.511Z,14.17
2023-03-24T15:13:35.927Z,14.11
2023-03-24T15:16:19.407Z,13.99
2023-03-24T15:19:01.992Z,13.94
2023-03-24T15:21:35.029Z,13.98
2023-03-24T15:24:03.306Z,14.10
2023-03-24T15:26:32.063Z,14.37
2023-03-24T15:29:05.613Z,14.33
2023-03-24T15:31:35.286Z,14.24
2023-03-24T15:34:04.146Z,14.01
2023-03-24T15:36:38.296Z,14.28
2023-03-24T15:39:19.165Z,14.98
2023-03-24T15:41:46.735Z,15.18
2023-03-24T15:44:21.745Z,15.40
2023-03-24T15:46:49.228Z,15.36
2023-03-24T15:49:35.905Z,15.56
2023-03-24T15:52:07.280Z,15.67
2023-03-24T15:54:40.233Z,15.58
2023-03-24T15:57:16.296Z,15.59
2023-03-24T15:59:47.026Z,15.74
2023-03-24T16:02:26.364Z,15.51
2023-03-24T16:05:09.973Z,14.83
2023-03-24T16:07:40.900Z,14.41
2023-03-24T16:10:20.815Z,14.18
2023-03-24T16:12:47.612Z,13.97
2023-03-24T16:15:14.506Z,13.84
2023-03-24T16:17:41.523Z,13.76
2023-03-24T16:20:19.089Z,13.65
2023-03-24T16:22:48.169Z,13.58
2023-03-24T16:25:15.182Z,13.79
2023-03-24T16:27:41.941Z,14.40
2023-03-24T16:30:20.479Z,14.81
2023-03-24T16:32:47.474Z,14.49
2023-03-24T16:35:14.724Z,14.29
2023-03-24T16:37:42.690Z,14.17
2023-03-24T16:40:21.341Z,14.36
2023-03-24T16:42:50.633Z,14.21
2023-03-24T16:45:17.480Z,14.16
2023-03-24T16:47:44.471Z,13.97
2023-03-24T16:50:27.789Z,13.87
2023-03-24T16:52:54.659Z,13.75
2023-03-24T16:55:21.501Z,13.59
2023-03-24T16:57:48.407Z,13.57
2023-03-24T17:00:16.007Z,13.40
2023-03-24T17:02:48.546Z,13.28
2023-03-24T17:05:24.858Z,13.13
2023-03-24T17:07:52.102Z,13.02
2023-03-24T17:10:19.376Z,13.04
2023-03-24T17:12:47.536Z,12.96
2023-03-24T17:15:28.798Z,12.85
2023-03-24T17:17:56.610Z,12.72
2023-03-24T17:20:24.901Z,12.66
2023-03-24T17:22:54.235Z,12.60
2023-03-24T17:25:25.043Z,12.54
2023-03-24T17:27:51.964Z,12.49
2023-03-24T17:30:21.350Z,12.42
2023-03-24T17:32:48.631Z,12.38
2023-03-24T17:35:18.772Z,12.35
2023-03-24T17:37:46.399Z,12.33
2023-03-24T17:40:15.237Z,12.28
2023-03-24T17:42:46.236Z,12.31
2023-03-24T17:45:16.543Z,12.33
2023-03-24T17:47:45.909Z,12.31
2023-03-24T17:50:13.813Z,12.26
2023-03-24T17:52:44.444Z,12.18
2023-03-24T17:55:11.762Z,12.12
2023-03-24T17:57:38.707Z,12.20
2023-03-24T18:00:11.803Z,12.24
2023-03-24T18:02:43.207Z,12.28
2023-03-24T18:05:16.113Z,12.24
2023-03-24T18:07:43.031Z,12.25
2023-03-24T18:10:19.261Z,12.30
2023-03-24T18:12:46.356Z,12.32
2023-03-24T18:15:13.391Z,12.29
2023-03-24T18:17:40.982Z,12.30
2023-03-24T18:20:12.378Z,12.29
2023-03-24T18:22:41.257Z,12.28
2023-03-24T18:25:11.487Z,12.30
2023-03-24T18:27:39.039Z,12.30
2023-03-24T18:30:08.266Z,12.30
2023-03-24T18:32:36.089Z,12.25
2023-03-24T18:35:03.020Z,12.22
2023-03-24T18:37:29.871Z,12.18
2023-03-24T18:39:56.766Z,12.14
2023-03-24T18:42:23.505Z,12.08
2023-03-24T18:44:50.258Z,12.04
2023-03-24T18:47:17.841Z,12.02
2023-03-24T18:53:26.476Z,11.94
2023-03-24T18:58:52.918Z,11.96
2023-03-24T19:01:28.210Z,11.96
2023-03-24T19:04:00.993Z,11.90
2023-03-24T19:06:31.501Z,11.61
2023-03-24T19:08:59.745Z,11.45
2023-03-24T19:11:27.352Z,11.57
2023-03-24T19:13:56.769Z,11.50
2023-03-24T19:16:23.588Z,11.55
2023-03-24T19:18:54.973Z,11.53
2023-03-24T19:21:31.021Z,11.55
2023-03-24T19:24:29.392Z,11.41
2023-03-24T19:27:33.282Z,11.21
2023-03-24T19:30:26.681Z,11.13
2023-03-24T19:33:10.187Z,10.99
2023-03-24T19:35:56.169Z,11.01
2023-03-24T19:43:38.651Z,11.11
2023-03-24T19:49:59.858Z,11.17
2023-03-24T19:52:27.300Z,11.06
2023-03-24T19:59:16.956Z,10.74
2023-03-24T20:09:23.495Z,10.83
2023-03-24T20:13:37.949Z,10.96
2023-03-24T20:15:24.513Z,10.88
2023-03-24T20:18:26.739Z,10.89
2023-03-24T20:24:59.423Z,10.84
2023-03-24T20:27:28.820Z,10.71
2023-03-24T20:33:25.132Z,10.50
2023-03-24T20:35:53.140Z,10.77
2023-03-24T20:38:24.044Z,10.79
2023-03-24T20:41:06.160Z,10.66
2023-03-24T20:47:28.851Z,10.70
2023-03-24T21:01:52.176Z,10.45
2023-03-24T21:04:49.861Z,10.49
2023-03-24T21:07:22.483Z,10.33
2023-03-24T21:09:49.506Z,10.40
2023-03-24T21:12:16.629Z,10.44
2023-03-24T21:14:46.902Z,10.45
2023-03-24T21:17:34.915Z,10.34
2023-03-24T21:20:13.667Z,10.14
2023-03-24T21:23:03.610Z,10.21
2023-03-24T21:25:36.149Z,10.21
2023-03-24T21:28:03.760Z,10.23
2023-03-24T21:30:32.218Z,10.19
2023-03-24T21:32:59.762Z,10.23
2023-03-24T21:35:27.064Z,10.18
2023-03-24T21:37:54.763Z,10.15
2023-03-24T21:40:25.395Z,10.10
2023-03-24T21:42:54.067Z,10.11
2023-03-24T21:45:23.806Z,10.04
2023-03-24T21:47:51.222Z,10.09
2023-03-24T21:50:23.370Z,9.94
2023-03-24T21:52:55.615Z,9.74
2023-03-24T21:55:23.438Z,9.73
2023-03-24T21:57:51.296Z,9.82
2023-03-24T22:00:22.577Z,9.91
2023-03-24T22:02:52.764Z,9.89
2023-03-24T22:05:22.073Z,9.96
2023-03-24T22:07:50.291Z,9.98
2023-03-24T22:10:23.522Z,10.02
2023-03-24T22:12:51.616Z,9.88
2023-03-24T22:15:19.420Z,9.95
2023-03-24T22:17:46.820Z,10.01
2023-03-24T22:20:18.624Z,9.99
2023-03-24T22:22:51.953Z,9.97
2023-03-24T22:25:21.622Z,9.96
2023-03-24T22:27:51.338Z,9.95
2023-03-24T22:30:19.610Z,9.90
2023-03-24T22:32:46.690Z,9.96
2023-03-24T22:35:14.098Z,9.92
2023-03-24T22:37:41.201Z,9.93
2023-03-24T22:40:09.440Z,9.92
2023-03-24T22:42:36.697Z,9.81
2023-03-24T22:45:04.111Z,9.82
2023-03-24T22:47:31.168Z,9.84
2023-03-24T22:49:58.484Z,9.82
2023-03-24T22:52:36.699Z,9.81
2023-03-24T22:55:10.383Z,9.82
2023-03-24T22:57:40.606Z,9.78
2023-03-24T23:00:16.031Z,9.76
2023-03-24T23:05:43.729Z,9.76
2023-03-24T23:08:19.495Z,9.73
2023-03-24T23:10:50.648Z,9.69
2023-03-24T23:13:17.662Z,9.68
2023-03-24T23:15:49.474Z,9.63
2023-03-24T23:18:18.565Z,9.62
2023-03-24T23:20:50.801Z,9.59
2023-03-24T23:23:18.141Z,9.61
2023-03-24T23:25:51.902Z,9.58
2023-03-24T23:28:20.050Z,9.55
2023-03-24T23:30:49.592Z,9.55
2023-03-24T23:33:16.759Z,9.51
2023-03-24T23:35:47.296Z,9.52
2023-03-24T23:38:14.361Z,9.36
2023-03-24T23:40:41.618Z,9.40
2023-03-24T23:43:11.087Z,9.45
2023-03-24T23:45:48.336Z,9.44
2023-03-24T23:48:15.769Z,9.38
2023-03-24T23:50:46.471Z,9.39
2023-03-24T23:53:13.502Z,9.34
2023-03-24T23:55:43.527Z,9.38
2023-03-24T23:58:11.296Z,9.39
